Time;durP1;ratioP1;P1;durP2;ratioP2;P2;SDS_P1;SDS_P2;PMS_P1;PMS_P2;Temp;Humidity;BMP_temperature;BMP_pressure;BME280_temperature;BME280_humidity;BME280_pressure;Samples;Min_cycle;Max_cycle;Signal;HPM_P1;HPM_P2
2020/12/01 00:00:41;;;;;;;5.20;3.83;;;7.70;99.90;;;;;;5094498;28;20219;-78
2020/12/01 00:03:07;;;;;;;5.53;3.40;;;7.60;99.90;;;;;;5092001;28;20177;-78
2020/12/01 00:05:33;;;;;;;7.80;3.73;;;7.70;99.90;;;;;;5110554;28;20718;-78
2020/12/01 00:07:58;;;;;;;8.03;3.63;;;7.80;99.90;;;;;;5113477;28;20251;-78
2020/12/01 00:10:24;;;;;;;7.27;3.03;;;7.80;99.90;;;;;;5094829;28;20232;-78
2020/12/01 00:12:50;;;;;;;5.27;2.73;;;7.60;99.90;;;;;;5111241;28;20192;-78
2020/12/01 00:15:21;;;;;;;4.80;3.13;;;7.60;99.90;;;;;;5111903;28;20225;-77
2020/12/01 00:17:48;;;;;;;4.47;2.87;;;7.50;99.90;;;;;;5111729;28;20185;-78
2020/12/01 00:20:17;;;;;;;4.20;2.87;;;7.50;99.90;;;;;;5111812;28;20188;-78
2020/12/01 00:22:42;;;;;;;8.80;3.13;;;7.50;99.90;;;;;;5111380;28;20177;-78
2020/12/01 00:25:09;;;;;;;6.83;2.93;;;7.50;99.90;;;;;;5091485;28;20544;-78
2020/12/01 00:27:35;;;;;;;4.43;2.30;;;7.50;99.90;;;;;;5107692;28;20303;-78
2020/12/01 00:30:04;;;;;;;5.83;2.50;;;7.60;99.90;;;;;;5111516;28;20243;-78
2020/12/01 00:32:30;;;;;;;8.47;3.10;;;7.60;99.90;;;;;;5111506;28;20183;-78
2020/12/01 00:34:55;;;;;;;6.90;2.73;;;7.60;99.90;;;;;;5111969;28;20282;-78
2020/12/01 00:37:21;;;;;;;9.83;3.00;;;7.50;99.90;;;;;;5110839;28;20189;-78
2020/12/01 00:39:47;;;;;;;8.97;3.27;;;7.40;99.90;;;;;;5091303;28;20242;-78
2020/12/01 00:42:12;;;;;;;7.07;2.93;;;7.50;99.90;;;;;;5092925;28;20643;-78
2020/12/01 00:44:38;;;;;;;11.97;2.90;;;7.50;99.90;;;;;;5094740;28;20196;-78
2020/12/01 00:47:03;;;;;;;12.63;3.30;;;7.50;99.90;;;;;;5112938;28;20197;-78
2020/12/01 00:49:29;;;;;;;11.73;3.30;;;7.60;99.90;;;;;;5111384;28;20180;-78
2020/12/01 00:51:55;;;;;;;6.53;3.03;;;7.50;99.90;;;;;;5112298;28;20230;-78
2020/12/01 00:54:20;;;;;;;8.57;3.30;;;7.40;99.90;;;;;;5094066;28;20271;-78
2020/12/01 00:56:46;;;;;;;16.77;3.77;;;7.40;99.90;;;;;;5092505;28;20704;-78
2020/12/01 00:59:11;;;;;;;10.00;3.03;;;7.40;99.90;;;;;;5074881;28;20677;-78
2020/12/01 01:01:37;;;;;;;15.90;4.17;;;7.40;99.90;;;;;;5097698;28;20194;-78
2020/12/01 01:04:03;;;;;;;13.30;3.93;;;7.40;99.90;;;;;;5111334;28;20565;-78
2020/12/01 01:06:28;;;;;;;14.63;3.83;;;7.40;99.90;;;;;;5111062;28;20199;-78
2020/12/01 01:08:54;;;;;;;13.50;3.60;;;7.40;99.90;;;;;;5112465;28;20182;-78
2020/12/01 01:11:27;;;;;;;14.20;3.80;;;7.30;99.90;;;;;;5112055;28;20180;-78
2020/12/01 01:13:53;;;;;;;14.37;3.93;;;7.30;99.90;;;;;;5112926;28;20177;-78
2020/12/01 01:16:19;;;;;;;14.17;4.27;;;7.30;99.90;;;;;;5110169;28;20192;-79
2020/12/01 01:18:44;;;;;;;18.30;4.03;;;7.30;99.90;;;;;;5112207;28;20195;-78
2020/12/01 01:21:10;;;;;;;19.23;4.03;;;7.20;99.90;;;;;;5112708;28;20217;-79
2020/12/01 01:23:36;;;;;;;22.70;3.83;;;7.20;99.90;;;;;;5110649;28;20204;-79
2020/12/01 01:26:01;;;;;;;14.90;3.40;;;7.20;99.90;;;;;;5093223;28;20217;-79
2020/12/01 01:28:27;;;;;;;14.23;3.63;;;7.20;99.90;;;;;;5074022;28;20671;-79
2020/12/01 01:30:52;;;;;;;10.93;3.30;;;7.10;99.90;;;;;;5093944;28;20344;-79
2020/12/01 01:33:18;;;;;;;12.63;3.60;;;7.10;99.90;;;;;;5111284;28;20589;-78
2020/12/01 01:35:43;;;;;;;18.13;3.50;;;7.00;99.90;;;;;;5097483;28;20207;-78
2020/12/01 01:38:09;;;;;;;12.47;3.70;;;7.10;99.90;;;;;;5115000;28;20227;-78
2020/12/01 01:40:35;;;;;;;12.40;3.50;;;7.10;99.90;;;;;;5114294;28;20184;-78
2020/12/01 01:43:02;;;;;;;15.47;3.50;;;7.20;99.90;;;;;;5104742;28;20192;-78
2020/12/01 01:45:48;;;;;;;12.43;3.70;;;7.10;99.90;;;;;;5109929;28;20675;-78
2020/12/01 01:48:26;;;;;;;15.33;3.87;;;6.90;99.90;;;;;;5115676;28;20160;-78
2020/12/01 01:51:16;;;;;;;11.77;3.40;;;6.90;99.90;;;;;;5115548;28;20238;-78
2020/12/01 01:53:48;;;;;;;12.03;3.23;;;6.90;99.90;;;;;;5105464;28;20181;-78
2020/12/01 01:56:19;;;;;;;17.30;3.70;;;6.90;99.90;;;;;;5115783;28;20192;-78
2020/12/01 01:58:46;;;;;;;10.10;3.03;;;7.10;99.90;;;;;;5114427;28;20170;-78
2020/12/01 02:01:15;;;;;;;12.83;3.70;;;7.10;99.90;;;;;;5114317;28;20177;-78
2020/12/01 02:03:44;;;;;;;13.93;3.83;;;7.20;99.90;;;;;;5114102;28;20596;-78
2020/12/01 02:06:40;;;;;;;19.93;4.27;;;7.20;99.90;;;;;;5114140;28;20193;-78
2020/12/01 02:09:29;;;;;;;18.07;4.80;;;7.20;99.90;;;;;;5112939;28;20177;-78
2020/12/01 02:11:57;;;;;;;18.17;3.93;;;7.30;99.90;;;;;;5111380;28;20185;-78
2020/12/01 02:14:26;;;;;;;18.57;4.13;;;7.30;99.90;;;;;;5115420;28;20533;-78
2020/12/01 02:17:17;;;;;;;19.13;4.60;;;7.30;99.90;;;;;;5113880;28;20180;-78
2020/12/01 02:19:43;;;;;;;19.10;4.57;;;7.30;99.90;;;;;;5104593;28;20649;-79
2020/12/01 02:22:14;;;;;;;17.27;4.47;;;7.30;99.90;;;;;;5114478;28;20543;-79
2020/12/01 02:24:41;;;;;;;17.47;4.37;;;7.50;99.90;;;;;;5109892;28;20637;-78
2020/12/01 02:27:06;;;;;;;17.57;4.30;;;7.40;99.90;;;;;;5114980;28;20704;-78
2020/12/01 02:29:35;;;;;;;19.90;4.37;;;7.40;99.90;;;;;;5114832;28;20177;-78
2020/12/01 02:32:02;;;;;;;23.60;5.40;;;7.40;99.90;;;;;;5114625;28;20204;-78
2020/12/01 02:34:34;;;;;;;29.03;5.30;;;7.20;99.90;;;;;;5114081;28;20595;-79
2020/12/01 02:37:01;;;;;;;28.93;5.30;;;7.30;99.90;;;;;;5115139;28;20248;-79
2020/12/01 02:39:28;;;;;;;25.57;5.43;;;7.40;99.90;;;;;;5113620;28;20653;-79
2020/12/01 02:41:56;;;;;;;26.50;5.13;;;7.50;99.90;;;;;;5114143;28;20188;-78
2020/12/01 02:44:21;;;;;;;27.43;5.50;;;7.50;99.90;;;;;;5112886;28;20177;-79
2020/12/01 02:46:47;;;;;;;23.00;5.20;;;7.40;99.90;;;;;;5113357;28;20734;-78
2020/12/01 02:49:13;;;;;;;23.43;5.70;;;7.20;99.90;;;;;;5093396;28;20658;-79
2020/12/01 02:51:39;;;;;;;19.20;5.17;;;7.20;99.90;;;;;;5088957;28;20181;-78
2020/12/01 02:54:04;;;;;;;26.73;5.87;;;7.10;99.90;;;;;;5110711;28;20182;-78
2020/12/01 02:56:30;;;;;;;25.90;5.50;;;7.20;99.90;;;;;;5110755;28;20673;-78
2020/12/01 02:58:56;;;;;;;24.57;5.83;;;7.10;99.90;;;;;;5092683;28;20195;-78
2020/12/01 03:01:22;;;;;;;29.97;5.70;;;7.00;99.90;;;;;;5107367;28;20211;-79
2020/12/01 03:03:48;;;;;;;26.80;5.90;;;7.00;99.90;;;;;;5114277;28;20182;-79
2020/12/01 03:06:16;;;;;;;19.70;5.00;;;7.00;99.90;;;;;;5114014;28;20203;-78
2020/12/01 03:08:42;;;;;;;26.20;5.90;;;7.10;99.90;;;;;;5113686;28;20212;-78
2020/12/01 03:11:11;;;;;;;21.97;5.80;;;7.10;99.90;;;;;;5113773;28;20209;-78
2020/12/01 03:13:37;;;;;;;19.63;5.17;;;7.20;99.90;;;;;;5096442;28;20718;-79
2020/12/01 03:16:10;;;;;;;25.80;5.27;;;7.40;99.90;;;;;;5113966;28;20260;-77
2020/12/01 03:18:37;;;;;;;21.80;5.43;;;7.40;99.90;;;;;;5088511;28;20207;-78
2020/12/01 03:21:04;;;;;;;22.83;5.13;;;7.50;99.90;;;;;;5112441;28;20233;-79
2020/12/01 03:23:30;;;;;;;30.50;6.10;;;7.60;99.90;;;;;;5113946;28;20175;-78
2020/12/01 03:25:55;;;;;;;23.43;5.70;;;7.40;99.90;;;;;;5111894;28;20195;-78
2020/12/01 03:28:21;;;;;;;28.33;5.80;;;7.30;99.90;;;;;;5112846;28;20181;-78
2020/12/01 03:30:48;;;;;;;24.53;5.50;;;7.30;99.90;;;;;;5113709;28;20655;-78
2020/12/01 03:33:13;;;;;;;26.47;4.60;;;7.30;99.90;;;;;;5113440;28;20241;-78
2020/12/01 03:35:39;;;;;;;22.20;4.87;;;7.40;99.90;;;;;;5113986;28;20664;-78
2020/12/01 03:38:05;;;;;;;20.03;4.97;;;7.30;99.90;;;;;;5113011;28;20666;-78
2020/12/01 03:40:31;;;;;;;21.10;4.30;;;7.40;99.90;;;;;;5095438;28;20200;-78
2020/12/01 03:42:57;;;;;;;19.47;5.20;;;7.50;99.90;;;;;;5113741;28;20181;-78
2020/12/01 03:45:22;;;;;;;24.17;5.97;;;7.40;99.90;;;;;;5112428;28;20166;-78
2020/12/01 03:47:53;;;;;;;22.40;4.77;;;7.30;99.90;;;;;;5113274;28;20227;-79
2020/12/01 03:50:19;;;;;;;23.80;4.67;;;7.20;99.90;;;;;;5112171;28;20207;-78
2020/12/01 03:52:44;;;;;;;17.47;4.20;;;7.10;99.90;;;;;;5096476;28;20197;-78
2020/12/01 03:55:10;;;;;;;20.27;4.33;;;7.20;99.90;;;;;;5065736;28;20186;-79
2020/12/01 03:57:41;;;;;;;20.57;4.93;;;7.20;99.90;;;;;;5113342;28;20193;-78
2020/12/01 04:00:12;;;;;;;13.90;3.97;;;7.20;99.90;;;;;;5111607;28;20189;-78
2020/12/01 04:02:38;;;;;;;19.70;4.80;;;7.20;99.90;;;;;;5111991;28;20187;-79
2020/12/01 04:05:05;;;;;;;16.93;3.83;;;7.10;99.90;;;;;;5111345;28;20264;-78
2020/12/01 04:07:30;;;;;;;13.20;3.90;;;7.20;99.90;;;;;;5113049;28;20269;-78
2020/12/01 04:09:57;;;;;;;17.83;4.10;;;7.10;99.90;;;;;;5107439;28;20613;-78
2020/12/01 04:12:24;;;;;;;17.00;3.73;;;7.00;99.90;;;;;;5112950;28;20170;-78
2020/12/01 04:14:49;;;;;;;12.73;3.60;;;7.00;99.90;;;;;;5111856;28;20255;-78
2020/12/01 04:17:15;;;;;;;15.17;3.40;;;7.20;99.90;;;;;;5112348;28;20334;-78
2020/12/01 04:19:42;;;;;;;11.47;3.30;;;7.30;99.90;;;;;;5111067;28;20184;-78
2020/12/01 04:22:08;;;;;;;11.27;3.40;;;7.30;99.90;;;;;;5112886;28;20272;-78
2020/12/01 04:24:33;;;;;;;13.90;3.47;;;7.10;99.90;;;;;;5111912;28;20267;-78
2020/12/01 04:26:59;;;;;;;9.27;2.77;;;7.10;99.90;;;;;;5111217;28;20224;-78
2020/12/01 04:29:25;;;;;;;14.13;3.10;;;7.10;99.90;;;;;;5111784;28;20650;-78
2020/12/01 04:31:50;;;;;;;10.43;2.73;;;7.20;99.90;;;;;;5112964;28;20173;-78
2020/12/01 04:34:16;;;;;;;8.60;3.00;;;7.10;99.90;;;;;;5111088;28;20574;-78
2020/12/01 04:36:41;;;;;;;11.57;3.27;;;7.10;99.90;;;;;;5111852;28;20562;-78
2020/12/01 04:39:07;;;;;;;12.17;3.30;;;7.20;99.90;;;;;;5094823;28;20183;-78
2020/12/01 04:41:33;;;;;;;12.70;2.70;;;7.10;99.90;;;;;;5111865;28;20217;-78
2020/12/01 04:44:00;;;;;;;7.30;2.70;;;7.00;99.90;;;;;;5112849;28;20181;-78
2020/12/01 04:46:29;;;;;;;7.40;2.30;;;7.00;99.90;;;;;;5112935;28;20260;-78
2020/12/01 04:48:58;;;;;;;9.50;2.97;;;7.20;99.90;;;;;;5110696;28;20174;-78
2020/12/01 04:51:51;;;;;;;15.07;2.90;;;7.40;99.90;;;;;;5111620;28;20173;-78
2020/12/01 04:54:29;;;;;;;9.20;2.43;;;7.30;99.90;;;;;;5112853;28;20587;-78
2020/12/01 04:57:19;;;;;;;8.43;3.00;;;7.30;99.90;;;;;;5112596;28;20177;-78
2020/12/01 05:00:06;;;;;;;7.60;2.50;;;7.10;99.90;;;;;;5112700;28;20247;-77
2020/12/01 05:02:51;;;;;;;12.10;2.90;;;7.00;99.90;;;;;;5112680;28;20198;-78
2020/12/01 05:08:40;;;;;;;10.80;2.77;;;6.90;99.90;;;;;;5100885;28;20180;-78
2020/12/01 05:11:25;;;;;;;10.43;3.30;;;6.90;99.90;;;;;;5111840;28;20200;-78
2020/12/01 05:14:12;;;;;;;10.27;2.90;;;6.90;99.90;;;;;;5117049;28;20210;-77
2020/12/01 05:16:49;;;;;;;12.83;3.10;;;6.90;99.90;;;;;;5114936;28;20234;-78
2020/12/01 05:19:31;;;;;;;11.20;3.30;;;6.90;99.90;;;;;;5114887;28;20238;-77
2020/12/01 05:21:57;;;;;;;10.43;3.17;;;7.00;99.90;;;;;;5111224;28;20189;-77
2020/12/01 05:24:22;;;;;;;14.67;4.23;;;7.00;99.90;;;;;;5116370;28;20178;-77
2020/12/01 05:26:48;;;;;;;12.73;3.47;;;7.00;99.90;;;;;;5098159;28;20213;-77
2020/12/01 05:29:24;;;;;;;11.83;3.07;;;7.00;99.90;;;;;;5116091;28;20178;-77
2020/12/01 05:31:50;;;;;;;14.50;4.13;;;7.00;99.90;;;;;;5114850;28;20187;-77
2020/12/01 05:34:18;;;;;;;12.70;2.93;;;7.00;99.90;;;;;;5115967;28;20181;-77
2020/12/01 05:36:43;;;;;;;17.30;3.60;;;7.10;99.90;;;;;;5110125;28;20210;-77
2020/12/01 05:39:18;;;;;;;13.13;3.67;;;7.10;99.90;;;;;;5114728;28;20235;-78
2020/12/01 05:42:00;;;;;;;12.73;3.40;;;7.10;99.90;;;;;;5124840;27;20204;-77
2020/12/01 05:44:32;;;;;;;9.57;2.60;;;7.10;99.90;;;;;;5114746;28;20267;-78
2020/12/01 05:47:13;;;;;;;13.60;2.97;;;7.10;99.90;;;;;;5114241;28;20189;-77
2020/12/01 05:50:04;;;;;;;11.07;3.13;;;7.20;99.90;;;;;;5114035;28;20176;-78
2020/12/01 05:52:45;;;;;;;10.53;2.70;;;7.30;99.90;;;;;;5106730;28;20571;-78
2020/12/01 05:55:23;;;;;;;10.40;3.20;;;7.30;99.90;;;;;;5115724;28;20167;-78
2020/12/01 05:58:15;;;;;;;11.20;3.00;;;7.30;99.90;;;;;;5102931;28;20205;-78
2020/12/01 06:00:43;;;;;;;14.10;3.53;;;7.40;99.90;;;;;;5107230;28;20278;-78
2020/12/01 06:03:36;;;;;;;16.50;3.67;;;7.30;99.90;;;;;;5094123;28;20185;-78
2020/12/01 06:06:06;;;;;;;14.47;3.60;;;7.40;99.90;;;;;;5110416;28;20552;-78
2020/12/01 06:09:09;;;;;;;17.60;4.07;;;7.40;99.90;;;;;;5114025;28;20259;-78
2020/12/01 06:11:44;;;;;;;10.97;3.47;;;7.40;99.90;;;;;;5111585;28;20247;-78
2020/12/01 06:14:37;;;;;;;17.37;4.00;;;7.50;99.90;;;;;;5113799;28;20165;-79
2020/12/01 06:17:42;;;;;;;21.13;4.27;;;7.50;99.90;;;;;;5097183;28;20201;-79
2020/12/01 06:20:28;;;;;;;23.23;4.57;;;7.50;99.90;;;;;;5069252;28;20202;-78
2020/12/01 06:23:31;;;;;;;23.83;4.77;;;7.50;99.90;;;;;;5110992;28;20165;-78
2020/12/01 06:26:14;;;;;;;22.40;4.87;;;7.60;99.90;;;;;;5110968;28;20189;-79
2020/12/01 06:29:04;;;;;;;21.57;4.70;;;7.60;99.90;;;;;;5113777;28;20166;-79
2020/12/01 06:31:35;;;;;;;25.63;5.63;;;7.50;99.90;;;;;;5113939;28;20632;-79
2020/12/01 06:34:30;;;;;;;21.50;4.47;;;7.60;99.90;;;;;;5113627;28;20250;-79
2020/12/01 06:37:23;;;;;;;18.97;4.80;;;7.60;99.90;;;;;;5110042;28;20464;-78
2020/12/01 06:40:08;;;;;;;22.60;5.47;;;7.60;99.90;;;;;;5104440;28;20191;-79
2020/12/01 06:43:04;;;;;;;23.43;5.40;;;7.50;99.90;;;;;;5111680;28;20329;-79
2020/12/01 06:45:47;;;;;;;43.73;15.23;;;7.60;99.90;;;;;;5102622;28;20568;-79
2020/12/01 06:48:27;;;;;;;19.20;5.03;;;7.60;99.90;;;;;;5114973;28;20234;-79
2020/12/01 06:50:59;;;;;;;28.10;6.50;;;7.60;99.90;;;;;;5112941;28;20182;-78
2020/12/01 06:53:26;;;;;;;26.67;6.43;;;7.60;99.90;;;;;;5114926;28;20219;-79
2020/12/01 06:55:57;;;;;;;30.63;6.67;;;7.60;99.90;;;;;;5114739;28;20185;-79
2020/12/01 06:58:25;;;;;;;27.20;7.23;;;7.60;99.90;;;;;;5095423;28;20648;-78
2020/12/01 07:01:17;;;;;;;28.17;6.97;;;7.60;99.90;;;;;;5113344;28;20294;-79
2020/12/01 07:03:44;;;;;;;30.30;7.07;;;7.70;99.90;;;;;;5112047;28;20243;-79
2020/12/01 07:06:16;;;;;;;34.17;6.97;;;7.70;99.90;;;;;;5114441;28;20185;-79
2020/12/01 07:08:42;;;;;;;33.93;8.50;;;7.70;99.90;;;;;;5114439;28;20173;-78
2020/12/01 07:11:24;;;;;;;44.30;8.07;;;7.80;99.90;;;;;;5114917;28;20645;-78
2020/12/01 07:13:57;;;;;;;34.13;8.77;;;7.70;99.90;;;;;;5094135;28;20160;-80
2020/12/01 07:16:33;;;;;;;38.57;7.23;;;7.70;99.90;;;;;;5092868;28;20222;-79
2020/12/01 07:19:05;;;;;;;35.90;7.30;;;7.70;99.90;;;;;;5112971;28;20180;-79
2020/12/01 07:21:54;;;;;;;34.20;6.50;;;7.70;99.90;;;;;;5100077;28;20540;-80
2020/12/01 07:24:54;;;;;;;35.10;6.80;;;7.70;99.90;;;;;;5092809;28;20614;-80
2020/12/01 07:27:34;;;;;;;39.40;7.00;;;7.70;99.90;;;;;;5097415;28;20214;-79
2020/12/01 07:30:16;;;;;;;34.80;6.80;;;7.60;99.90;;;;;;5112675;28;20625;-79
2020/12/01 07:32:48;;;;;;;28.87;6.90;;;7.70;99.90;;;;;;5113490;28;20158;-79
2020/12/01 07:35:46;;;;;;;38.70;8.20;;;7.70;99.90;;;;;;5113776;28;20212;-79
2020/12/01 07:38:37;;;;;;;34.33;6.47;;;7.70;99.90;;;;;;5113006;28;20181;-79
2020/12/01 07:41:31;;;;;;;38.20;7.70;;;7.70;99.90;;;;;;5113979;28;20533;-79
2020/12/01 07:44:11;;;;;;;40.27;7.73;;;7.70;99.90;;;;;;5100723;28;20700;-79
2020/12/01 07:46:52;;;;;;;26.87;7.30;;;7.70;99.90;;;;;;5112222;28;20560;-79
2020/12/01 07:49:20;;;;;;;25.43;7.13;;;7.80;99.90;;;;;;5113772;28;20188;-79
2020/12/01 07:51:47;;;;;;;30.93;6.87;;;7.70;99.90;;;;;;5112140;28;20199;-80
2020/12/01 07:54:20;;;;;;;27.37;5.90;;;7.70;99.90;;;;;;5113690;28;20196;-79
2020/12/01 07:56:46;;;;;;;31.37;6.13;;;7.60;99.90;;;;;;5113263;28;20187;-79
2020/12/01 07:59:13;;;;;;;31.87;7.03;;;7.60;99.90;;;;;;5112487;28;20177;-79
2020/12/01 08:01:40;;;;;;;29.73;7.37;;;7.60;99.90;;;;;;5113258;28;20269;-79
2020/12/01 08:04:11;;;;;;;34.50;6.70;;;7.70;99.90;;;;;;5112496;28;20182;-79
2020/12/01 08:06:36;;;;;;;32.57;6.97;;;7.70;99.90;;;;;;5112312;28;20205;-79
2020/12/01 08:09:13;;;;;;;37.20;7.03;;;7.70;99.90;;;;;;5094991;28;20183;-79
2020/12/01 08:11:41;;;;;;;30.97;6.27;;;7.70;99.90;;;;;;5112464;28;20181;-79
2020/12/01 08:14:07;;;;;;;27.90;7.47;;;7.70;99.90;;;;;;5112332;28;20166;-80
2020/12/01 08:16:33;;;;;;;33.33;6.57;;;7.70;99.90;;;;;;5112179;28;20183;-79
2020/12/01 08:18:59;;;;;;;30.17;6.27;;;7.60;99.90;;;;;;5103506;28;20612;-79
2020/12/01 08:21:31;;;;;;;28.87;6.67;;;7.70;99.90;;;;;;5092780;28;20181;-79
2020/12/01 08:24:02;;;;;;;30.23;6.33;;;7.70;99.90;;;;;;5099348;28;20682;-79
2020/12/01 08:26:31;;;;;;;33.83;7.50;;;7.70;99.90;;;;;;5104952;28;20210;-79
2020/12/01 08:29:18;;;;;;;25.77;6.87;;;7.80;99.90;;;;;;5105814;28;20249;-78
2020/12/01 08:31:59;;;;;;;38.27;7.47;;;7.80;99.90;;;;;;5088624;28;20729;-78
2020/12/01 08:34:38;;;;;;;31.07;7.10;;;7.70;99.90;;;;;;5081430;28;20278;-79
2020/12/01 08:37:03;;;;;;;29.40;6.83;;;7.80;99.90;;;;;;5106984;28;20196;-79
2020/12/01 08:39:45;;;;;;;31.17;7.37;;;7.90;99.90;;;;;;5107396;28;20182;-79
2020/12/01 08:42:39;;;;;;;33.20;7.83;;;7.90;99.90;;;;;;5103770;28;20220;-79
2020/12/01 08:45:13;;;;;;;41.33;7.43;;;7.90;99.90;;;;;;5108887;28;20213;-79
2020/12/01 08:47:40;;;;;;;30.97;6.13;;;7.90;99.90;;;;;;5111759;28;20294;-78
2020/12/01 08:50:19;;;;;;;43.63;8.27;;;8.00;99.90;;;;;;5105849;28;20193;-79
2020/12/01 08:52:45;;;;;;;28.80;7.00;;;7.90;99.90;;;;;;5107797;28;20221;-78
2020/12/01 08:55:23;;;;;;;28.70;7.67;;;7.90;99.90;;;;;;5112834;28;20660;-78
2020/12/01 08:57:58;;;;;;;39.97;7.90;;;8.00;99.90;;;;;;5108294;28;20185;-78
2020/12/01 09:00:24;;;;;;;37.47;9.13;;;8.10;99.90;;;;;;5104405;28;20651;-78
2020/12/01 09:02:51;;;;;;;33.90;8.30;;;8.10;99.90;;;;;;5110922;28;20200;-78
2020/12/01 09:05:32;;;;;;;33.10;7.50;;;8.10;99.90;;;;;;5103280;28;20203;-78
2020/12/01 09:08:29;;;;;;;26.47;7.00;;;8.10;99.90;;;;;;5107208;28;20192;-79
2020/12/01 09:11:45;;;;;;;27.17;6.83;;;8.20;99.90;;;;;;5113643;27;20166;-79
2020/12/01 09:14:22;;;;;;;28.00;6.27;;;8.20;99.90;;;;;;5101793;28;20615;-81
2020/12/01 09:16:59;;;;;;;31.07;6.37;;;8.10;99.90;;;;;;5107967;28;20272;-80
2020/12/01 09:22:27;;;;;;;39.83;7.47;;;8.10;99.90;;;;;;5108739;28;20183;-79
2020/12/01 09:25:12;;;;;;;27.73;6.93;;;8.10;99.90;;;;;;5104131;28;20182;-80
2020/12/01 09:27:38;;;;;;;25.30;5.87;;;8.10;99.90;;;;;;5113163;28;20212;-79
2020/12/01 09:30:04;;;;;;;31.77;7.03;;;8.10;99.90;;;;;;5111659;28;20181;-80
2020/12/01 09:32:30;;;;;;;27.00;6.33;;;8.20;99.90;;;;;;5099005;28;20227;-79
2020/12/01 09:34:56;;;;;;;27.37;6.70;;;8.20;99.90;;;;;;5100843;28;20683;-79
2020/12/01 09:37:22;;;;;;;32.63;7.03;;;8.20;99.90;;;;;;5077589;28;20181;-79
2020/12/01 09:39:48;;;;;;;25.90;6.73;;;8.20;99.90;;;;;;5094430;28;20185;-81
2020/12/01 09:47:12;;;;;;;31.47;7.23;;;8.20;99.90;;;;;;5101670;28;20723;-79
2020/12/01 09:49:37;;;;;;;27.93;6.60;;;8.20;99.90;;;;;;5096261;28;20188;-80
2020/12/01 09:52:14;;;;;;;29.40;7.00;;;8.20;99.90;;;;;;5080494;28;20543;-78
2020/12/01 10:00:26;;;;;;;33.37;7.57;;;8.40;99.90;;;;;;5040166;28;20285;-78
2020/12/01 10:03:33;;;;;;;27.27;6.33;;;8.40;99.90;;;;;;5095314;28;20666;-79
2020/12/01 10:08:22;;;;;;;23.10;6.10;;;8.50;99.90;;;;;;5113839;28;20218;-79
2020/12/01 10:11:09;;;;;;;28.27;5.97;;;8.60;99.90;;;;;;5114126;28;20177;-80
2020/12/01 10:34:53;;;;;;;27.73;6.30;;;8.60;99.90;;;;;;5114192;28;20271;-80
2020/12/01 10:37:19;;;;;;;20.00;5.80;;;8.60;99.90;;;;;;5113135;28;20201;-79
2020/12/01 10:39:44;;;;;;;21.60;5.53;;;8.70;99.90;;;;;;5106897;28;20213;-80
2020/12/01 10:42:14;;;;;;;19.43;5.27;;;8.80;99.90;;;;;;5106262;28;20221;-79
2020/12/01 10:44:40;;;;;;;22.10;5.37;;;8.80;99.90;;;;;;5110177;28;20176;-79
2020/12/01 10:47:06;;;;;;;20.00;4.70;;;8.80;99.90;;;;;;5108703;28;20737;-79
2020/12/01 10:49:32;;;;;;;25.10;5.30;;;8.80;99.90;;;;;;5100341;28;20182;-80
2020/12/01 10:51:58;;;;;;;20.80;4.57;;;8.90;99.90;;;;;;5114249;28;20237;-79
2020/12/01 10:54:24;;;;;;;17.60;4.70;;;8.90;99.90;;;;;;5113699;28;20202;-80
2020/12/01 10:56:50;;;;;;;22.37;5.00;;;9.00;99.90;;;;;;5079656;28;20177;-80
2020/12/01 10:59:17;;;;;;;20.03;4.77;;;9.00;99.90;;;;;;5115120;28;20244;-79
2020/12/01 11:01:43;;;;;;;23.53;5.03;;;9.00;99.90;;;;;;5114346;28;20253;-81
2020/12/01 11:04:12;;;;;;;26.47;5.20;;;9.00;99.90;;;;;;5103630;28;20234;-79
2020/12/01 11:06:38;;;;;;;27.97;5.70;;;8.90;99.90;;;;;;5099128;28;20217;-79
2020/12/01 11:09:09;;;;;;;18.87;4.37;;;8.90;99.90;;;;;;5092091;28;20179;-79
2020/12/01 11:11:34;;;;;;;17.83;5.10;;;8.90;99.90;;;;;;5095599;28;20177;-80
2020/12/01 11:14:02;;;;;;;13.03;3.77;;;8.90;99.90;;;;;;5106278;28;20211;-80
2020/12/01 11:16:28;;;;;;;18.73;4.03;;;9.00;99.90;;;;;;5106900;28;20190;-81
2020/12/01 11:18:53;;;;;;;16.70;4.17;;;9.00;99.90;;;;;;5113767;28;20265;-80
2020/12/01 11:21:19;;;;;;;16.90;4.17;;;9.10;99.90;;;;;;5106601;28;20255;-81
2020/12/01 11:23:45;;;;;;;18.90;4.63;;;9.10;99.90;;;;;;5107367;28;20528;-80
2020/12/01 11:26:12;;;;;;;17.33;4.43;;;9.10;99.90;;;;;;5108727;28;20205;-80
2020/12/01 11:28:38;;;;;;;19.97;4.07;;;9.20;99.90;;;;;;5111027;28;20545;-79
2020/12/01 11:31:04;;;;;;;16.23;4.33;;;9.20;99.90;;;;;;5110813;28;20174;-80
2020/12/01 11:33:30;;;;;;;20.70;5.10;;;9.20;99.90;;;;;;5112639;28;20176;-80
2020/12/01 11:35:55;;;;;;;21.83;4.80;;;9.20;99.90;;;;;;5114214;28;20170;-80
2020/12/01 11:38:21;;;;;;;20.30;4.57;;;9.30;99.90;;;;;;5106414;28;20188;-81
2020/12/01 11:40:46;;;;;;;19.87;4.87;;;9.30;99.90;;;;;;5093696;28;20174;-81
2020/12/01 11:43:12;;;;;;;22.47;4.77;;;9.40;99.90;;;;;;5105600;28;20205;-81
2020/12/01 11:45:38;;;;;;;18.73;4.60;;;9.40;99.90;;;;;;5105814;28;20213;-81
2020/12/01 11:48:03;;;;;;;16.47;4.60;;;9.30;99.90;;;;;;5097324;28;20693;-81
2020/12/01 11:50:29;;;;;;;19.00;5.43;;;9.30;99.90;;;;;;5113681;28;20173;-81
2020/12/01 11:52:55;;;;;;;23.47;7.27;;;9.30;99.90;;;;;;5095469;28;20186;-79
2020/12/01 11:55:20;;;;;;;15.13;3.37;;;9.30;99.90;;;;;;5112413;28;20178;-80
2020/12/01 11:57:46;;;;;;;21.97;5.70;;;9.40;99.90;;;;;;5095416;28;20832;-81
2020/12/01 12:00:17;;;;;;;15.03;3.90;;;9.40;99.90;;;;;;5100884;28;20193;-81
2020/12/01 12:02:43;;;;;;;19.83;5.37;;;9.50;99.90;;;;;;5111539;28;20189;-82
2020/12/01 12:05:09;;;;;;;20.40;5.60;;;9.50;99.90;;;;;;5113539;28;20189;-81
2020/12/01 12:07:34;;;;;;;13.20;3.67;;;9.50;99.90;;;;;;5094371;28;20226;-82
2020/12/01 12:10:00;;;;;;;22.07;4.80;;;9.50;99.90;;;;;;5102631;28;20619;-80
2020/12/01 12:12:25;;;;;;;17.23;5.03;;;9.40;99.90;;;;;;5103589;28;20181;-81
2020/12/01 12:14:51;;;;;;;16.87;5.50;;;9.40;99.90;;;;;;5092064;28;20202;-81
2020/12/01 12:17:17;;;;;;;18.97;5.67;;;9.50;99.90;;;;;;5074671;28;20726;-81
2020/12/01 12:19:44;;;;;;;18.63;5.70;;;9.30;99.90;;;;;;5091768;28;20539;-80
2020/12/01 12:22:12;;;;;;;19.33;6.40;;;9.30;99.90;;;;;;5106790;28;20192;-80
2020/12/01 12:24:38;;;;;;;22.77;5.37;;;9.20;99.90;;;;;;5091449;28;20216;-80
2020/12/01 12:27:03;;;;;;;16.80;5.23;;;9.20;99.90;;;;;;5110436;28;20685;-81
2020/12/01 12:29:30;;;;;;;22.90;5.00;;;9.30;99.90;;;;;;5112471;28;20190;-81
2020/12/01 12:31:56;;;;;;;19.13;5.10;;;9.30;99.90;;;;;;5104287;28;20235;-80
2020/12/01 12:34:22;;;;;;;21.47;5.73;;;9.30;99.90;;;;;;5110780;28;20186;-80
2020/12/01 12:36:47;;;;;;;15.07;4.60;;;9.30;99.90;;;;;;5098832;28;20188;-79
2020/12/01 12:39:13;;;;;;;19.20;6.27;;;9.30;99.90;;;;;;5094202;28;20239;-80
2020/12/01 12:41:39;;;;;;;26.27;10.80;;;9.40;99.90;;;;;;5106674;28;20641;-80
2020/12/01 12:44:06;;;;;;;23.20;8.33;;;9.40;99.90;;;;;;5111987;28;20227;-80
2020/12/01 12:46:32;;;;;;;20.97;6.33;;;9.50;99.90;;;;;;5107925;28;20215;-81
2020/12/01 12:48:58;;;;;;;21.07;6.50;;;9.40;99.90;;;;;;5113038;28;20620;-80
2020/12/01 12:51:24;;;;;;;18.73;7.30;;;9.40;99.90;;;;;;5111192;28;20262;-80
2020/12/01 12:53:50;;;;;;;16.60;5.00;;;9.40;99.90;;;;;;5111808;28;20490;-80
2020/12/01 12:56:15;;;;;;;22.63;6.97;;;9.40;99.90;;;;;;5111073;28;20234;-80
2020/12/01 12:58:41;;;;;;;14.03;4.13;;;9.40;99.90;;;;;;5111489;28;20182;-80
2020/12/01 13:01:07;;;;;;;17.03;5.37;;;9.40;99.90;;;;;;5105575;28;20376;-80
2020/12/01 13:03:32;;;;;;;19.03;5.47;;;9.40;99.90;;;;;;5112608;28;20178;-80
2020/12/01 13:05:58;;;;;;;16.90;5.07;;;9.40;99.90;;;;;;5097096;28;20342;-80
2020/12/01 13:08:24;;;;;;;21.23;5.10;;;9.40;99.90;;;;;;5101826;28;20299;-80
2020/12/01 13:10:49;;;;;;;22.10;7.23;;;9.50;99.90;;;;;;5111331;28;20185;-80
2020/12/01 13:13:15;;;;;;;21.93;7.33;;;9.60;99.90;;;;;;5111612;28;20524;-79
2020/12/01 13:15:41;;;;;;;24.77;9.17;;;9.60;99.90;;;;;;5113180;28;20186;-80
2020/12/01 13:18:07;;;;;;;24.77;6.67;;;9.70;99.90;;;;;;5111890;28;20197;-80
2020/12/01 13:20:32;;;;;;;25.60;12.20;;;9.80;99.90;;;;;;5111783;28;20550;-80
2020/12/01 13:22:59;;;;;;;18.03;7.70;;;9.80;99.90;;;;;;5112506;28;20192;-82
2020/12/01 13:25:25;;;;;;;23.83;6.33;;;9.70;99.90;;;;;;5112721;28;20234;-80
2020/12/01 13:27:51;;;;;;;25.37;6.63;;;9.60;99.90;;;;;;5111362;28;20628;-80
2020/12/01 13:30:19;;;;;;;21.83;6.67;;;9.60;99.90;;;;;;5095924;28;20187;-80
2020/12/01 13:32:44;;;;;;;19.27;5.17;;;9.50;99.90;;;;;;5114816;28;20194;-82
2020/12/01 13:35:12;;;;;;;21.07;7.30;;;9.50;99.90;;;;;;5098112;28;20189;-81
2020/12/01 13:37:37;;;;;;;21.10;5.43;;;9.40;99.90;;;;;;5116362;28;20173;-81
2020/12/01 13:40:05;;;;;;;19.77;5.80;;;9.40;99.90;;;;;;5114863;28;20558;-81
2020/12/01 13:42:31;;;;;;;23.57;7.00;;;9.40;99.90;;;;;;5116387;28;20229;-81
2020/12/01 13:44:56;;;;;;;20.10;5.83;;;9.30;99.90;;;;;;5115587;28;20201;-81
2020/12/01 13:47:22;;;;;;;26.47;6.60;;;9.30;99.90;;;;;;5114874;28;20661;-81